Time;durP1;ratioP1;P1;durP2;ratioP2;P2;SDS_P1;SDS_P2;PMS_P1;PMS_P2;Temp;Humidity;BMP_temperature;BMP_pressure;BME280_temperature;BME280_humidity;BME280_pressure;Samples;Min_cycle;Max_cycle;Signal;HPM_P1;HPM_P2
2022/04/05 00:00:54;;;;;;;1.17;1.17;;;;;;;19.18;43.84;96831.00;4875412;29;20688;-82
2022/04/05 00:03:21;;;;;;;1.40;1.30;;;;;;;19.00;44.06;96797.38;4860355;29;20245;-82
2022/04/05 00:05:48;;;;;;;1.37;1.27;;;;;;;19.31;43.83;96848.38;4842950;29;20203;-82
2022/04/05 00:08:17;;;;;;;1.60;1.50;;;;;;;19.00;43.56;96795.69;4884141;29;20221;-91
2022/04/05 00:10:44;;;;;;;1.43;1.33;;;;;;;18.52;43.92;96709.47;4913040;29;20206;-90
2022/04/05 00:13:10;;;;;;;1.40;1.30;;;;;;;17.75;43.95;96580.97;4918011;29;20198;-90
2022/04/05 00:15:37;;;;;;;1.40;1.30;;;;;;;17.58;43.91;96543.16;4918108;29;20189;-89
2022/04/05 00:18:04;;;;;;;1.33;1.20;;;;;;;18.28;43.85;96661.31;4885976;29;20254;-89
2022/04/05 00:20:30;;;;;;;1.57;1.47;;;;;;;17.89;43.83;96602.53;4886552;29;20222;-90
2022/04/05 00:23:00;;;;;;;1.40;1.30;;;;;;;18.78;44.16;96745.03;4902049;29;20222;-90
2022/04/05 00:25:27;;;;;;;1.43;1.33;;;;;;;18.04;44.02;96637.72;4892854;29;20206;-90
2022/04/05 00:27:55;;;;;;;1.00;1.00;;;;;;;18.59;43.96;96702.06;4903619;29;20198;-89
2022/04/05 01:00:06;;;;;;;1.40;1.30;;;;;;;17.33;43.47;96434.06;5339630;23;20316;-87
2022/04/05 01:02:39;;;;;;;1.53;1.43;;;;;;;14.21;43.62;95942.31;4886452;29;20315;-87
2022/04/05 01:05:10;;;;;;;1.50;1.30;;;;;;;16.95;43.76;96409.25;4864658;29;20210;-85
2022/04/05 01:07:39;;;;;;;1.07;1.07;;;;;;;15.43;43.63;96100.50;4880851;29;20201;-87
2022/04/05 01:10:07;;;;;;;1.20;1.20;;;;;;;13.59;43.61;95781.19;4898171;29;20205;-86
2022/04/05 01:12:34;;;;;;;1.37;1.27;;;;;;;12.52;43.11;95628.84;4898003;29;20592;-86
2022/04/05 01:15:00;;;;;;;1.73;1.50;;;;;;;15.27;44.10;96078.00;4900996;29;20206;-86
2022/04/05 01:17:30;;;;;;;1.50;1.40;;;;;;;15.70;43.36;96129.16;4879635;29;20226;-87
2022/04/05 01:19:57;;;;;;;1.40;1.30;;;;;;;15.91;43.58;96150.91;4895049;29;20689;-85
2022/04/05 01:22:23;;;;;;;1.40;1.30;;;;;;;13.90;43.58;95815.84;4879720;29;20842;-86
2022/04/05 01:24:51;;;;;;;1.20;1.20;;;;;;;15.77;43.48;96116.72;4881658;29;20237;-87
2022/04/05 01:27:19;;;;;;;1.43;1.33;;;;;;;13.45;44.09;95810.19;4881164;29;20229;-86
2022/04/05 01:29:47;;;;;;;1.60;1.37;;;;;;;13.76;43.37;95848.22;4890194;29;20206;-88
2022/04/05 01:32:14;;;;;;;1.40;1.30;;;;;;;16.97;43.41;96306.97;4886590;29;20716;-86
2022/04/05 01:34:41;;;;;;;1.20;1.20;;;;;;;14.02;42.91;95870.13;4899398;29;20217;-86
2022/04/05 01:37:10;;;;;;;1.20;1.20;;;;;;;16.36;43.98;96257.81;4883161;29;20234;-86
2022/04/05 01:39:39;;;;;;;1.13;1.13;;;;;;;14.22;43.84;95810.13;4882189;29;20332;-87
2022/04/05 01:42:12;;;;;;;1.50;1.40;;;;;;;18.83;43.54;96616.19;4885229;29;20596;-86
2022/04/05 01:44:39;;;;;;;1.20;1.20;;;;;;;17.73;43.65;96437.75;4885958;29;20241;-87
2022/04/05 01:47:09;;;;;;;1.30;1.20;;;;;;;15.74;43.69;96130.97;4881699;29;20205;-86
2022/04/05 01:49:37;;;;;;;1.60;1.50;;;;;;;19.53;43.98;96736.88;4867988;29;20249;-86
2022/04/05 01:52:04;;;;;;;1.40;1.30;;;;;;;17.52;43.51;96414.31;4882366;29;20229;-88
2022/04/05 01:54:30;;;;;;;1.30;1.20;;;;;;;15.71;43.70;96156.19;4882690;29;20213;-85
2022/04/05 01:56:57;;;;;;;1.30;1.20;;;;;;;18.17;43.62;96566.91;4883431;29;20208;-85
2022/04/05 01:59:26;;;;;;;1.20;1.20;;;;;;;17.41;43.18;96376.72;4881797;29;20587;-86
2022/04/05 02:01:56;;;;;;;1.20;1.20;;;;;;;18.66;43.64;96624.22;4882325;29;20775;-85
2022/04/05 02:04:23;;;;;;;1.20;1.20;;;;;;;14.32;42.10;95857.63;4879971;29;20210;-86
2022/04/05 02:06:50;;;;;;;1.30;1.20;;;;;;;15.58;42.78;96093.34;4877949;29;20203;-86
2022/04/05 03:00:35;;;;;;;1.40;1.30;;;;;;;19.34;43.68;96678.66;5715469;23;20280;-87
2022/04/05 03:03:03;;;;;;;1.30;1.20;;;;;;;18.15;43.57;96487.19;4852509;29;20202;-89
2022/04/05 03:05:29;;;;;;;1.30;1.20;;;;;;;17.52;43.71;96360.13;4862518;29;20262;-86
2022/04/05 03:07:56;;;;;;;1.13;1.13;;;;;;;18.78;43.61;96577.03;4861970;29;20214;-87
2022/04/05 03:10:24;;;;;;;1.40;1.30;;;;;;;19.12;43.61;96635.59;4862172;29;20206;-86
2022/04/05 03:12:54;;;;;;;1.23;1.20;;;;;;;16.92;43.43;96273.00;4863098;29;20266;-88
2022/04/05 03:15:21;;;;;;;1.43;1.33;;;;;;;13.68;43.53;95705.78;4843247;29;20218;-86
2022/04/05 03:17:48;;;;;;;1.17;1.17;;;;;;;17.29;43.45;96315.47;4861787;29;20780;-86
2022/04/05 03:20:15;;;;;;;1.30;1.20;;;;;;;18.42;43.59;96512.50;4862541;29;20206;-86
2022/04/05 03:22:42;;;;;;;1.30;1.20;;;;;;;18.54;43.43;96537.38;4861381;29;20230;-86
2022/04/05 03:25:09;;;;;;;1.50;1.40;;;;;;;18.56;43.46;96535.75;4861700;29;20546;-85
2022/04/05 03:27:42;;;;;;;2.20;1.30;;;;;;;17.50;43.54;96328.75;4862552;29;20220;-87
2022/04/05 03:30:09;;;;;;;1.40;1.30;;;;;;;19.03;43.92;96598.84;4858703;29;20239;-86
2022/04/05 03:32:36;;;;;;;1.37;1.27;;;;;;;19.39;43.61;96658.38;4860187;29;20658;-88
2022/04/05 03:35:04;;;;;;;1.33;1.23;;;;;;;19.16;43.48;96604.28;4862148;29;20238;-87
2022/04/05 03:37:31;;;;;;;1.10;1.10;;;;;;;18.31;43.45;96454.50;4859248;29;20338;-86
2022/04/05 03:39:59;;;;;;;1.23;1.20;;;;;;;18.15;43.66;96428.69;4861806;29;20279;-89
2022/04/05 03:42:26;;;;;;;1.17;1.17;;;;;;;19.05;43.38;96581.94;4875726;29;20222;-86
2022/04/05 03:44:53;;;;;;;1.17;1.07;;;;;;;18.74;43.41;96554.03;4864411;29;20242;-86
2022/04/05 03:47:19;;;;;;;1.23;1.13;;;;;;;18.56;43.62;96500.13;4876594;29;20653;-86
2022/04/05 03:49:46;;;;;;;1.27;1.20;;;;;;;18.70;43.67;96530.16;4851511;29;20692;-86
2022/04/05 03:52:13;;;;;;;1.03;1.03;;;;;;;17.77;43.89;96385.34;4861838;29;20753;-89
2022/04/05 03:54:39;;;;;;;1.17;1.17;;;;;;;18.42;43.46;96498.91;4846119;29;20210;-86
2022/04/05 03:57:06;;;;;;;1.10;1.10;;;;;;;17.72;43.79;96380.16;4868848;29;20257;-86
2022/04/05 03:59:36;;;;;;;1.20;1.17;;;;;;;19.36;43.84;96653.22;4866030;29;20234;-86
2022/04/05 04:02:03;;;;;;;1.20;1.20;;;;;;;18.64;43.55;96564.78;4877657;29;20243;-85
2022/04/05 04:04:33;;;;;;;1.20;1.20;;;;;;;18.49;43.30;96528.78;4870300;29;20222;-85
2022/04/05 04:07:02;;;;;;;1.27;1.27;;;;;;;17.16;43.79;96308.31;4870878;29;20648;-85
2022/04/05 04:09:32;;;;;;;1.10;1.10;;;;;;;17.23;43.73;96321.22;4882559;29;20233;-85
2022/04/05 04:12:00;;;;;;;1.10;1.10;;;;;;;15.97;44.14;96074.22;4870475;29;20268;-84
2022/04/05 04:14:27;;;;;;;1.20;1.20;;;;;;;16.49;43.81;96188.91;4866528;29;20579;-85
2022/04/05 04:16:54;;;;;;;1.30;1.20;;;;;;;15.51;43.81;96045.91;4865952;29;20635;-86
2022/04/05 04:19:21;;;;;;;1.17;1.17;;;;;;;17.64;44.14;96414.66;4882518;29;20229;-86
2022/04/05 04:21:51;;;;;;;1.30;1.20;;;;;;;15.89;43.63;96081.63;4864743;29;20475;-86
2022/04/05 04:24:18;;;;;;;1.17;1.10;;;;;;;15.70;43.66;96114.84;4864831;29;20626;-85
2022/04/05 04:26:45;;;;;;;1.47;1.37;;;;;;;19.49;44.27;96778.41;4860681;29;20219;-87
2022/04/05 04:29:12;;;;;;;1.20;1.20;;;;;;;14.12;43.44;95838.47;4865448;29;20206;-87
2022/04/05 04:31:40;;;;;;;1.80;1.50;;;;;;;15.65;43.79;96074.97;4866342;29;20234;-86
2022/04/05 04:34:07;;;;;;;1.30;1.27;;;;;;;19.46;43.78;96717.16;4866954;29;20265;-86
2022/04/05 04:36:33;;;;;;;1.27;1.20;;;;;;;16.37;43.55;96171.66;4874885;29;20254;-86
2022/04/05 04:39:07;;;;;;;1.20;1.10;;;;;;;17.42;43.69;96360.66;4866928;29;20218;-86
2022/04/05 04:41:34;;;;;;;1.37;1.27;;;;;;;17.36;43.51;96361.38;4865984;29;20724;-85
2022/04/05 04:44:00;;;;;;;1.40;1.30;;;;;;;15.60;43.90;96079.91;4866633;29;20241;-86
2022/04/05 04:46:27;;;;;;;1.20;1.20;;;;;;;14.24;43.91;95877.59;4864099;29;20643;-86
2022/04/05 04:48:54;;;;;;;1.13;1.13;;;;;;;14.34;44.10;95851.81;4848632;29;20215;-89
2022/04/05 04:51:23;;;;;;;1.10;1.10;;;;;;;15.46;43.06;96103.09;4866772;29;20230;-86
2022/04/05 04:53:57;;;;;;;1.30;1.20;;;;;;;19.27;45.25;96732.78;4858944;29;20203;-85
2022/04/05 04:56:24;;;;;;;1.10;1.10;;;;;;;12.88;43.48;95583.84;4849142;29;20207;-88
2022/04/05 04:58:51;;;;;;;1.37;1.20;;;;;;;15.60;45.41;96104.38;4835446;29;20243;-85
2022/04/05 05:01:21;;;;;;;1.43;1.33;;;;;;;15.71;44.24;96101.34;4873901;29;20286;-84
2022/04/05 05:03:48;;;;;;;1.20;1.20;;;;;;;15.60;44.49;96074.00;4866853;29;20202;-87
2022/04/05 05:06:15;;;;;;;1.40;1.30;;;;;;;17.28;44.24;96383.16;4867176;29;20234;-87
2022/04/05 05:08:42;;;;;;;1.73;1.23;;;;;;;18.97;44.01;96639.44;4866640;29;20706;-85
2022/04/05 05:11:09;;;;;;;1.10;1.10;;;;;;;18.75;43.98;96620.22;4867113;29;20318;-85
2022/04/05 05:13:37;;;;;;;1.10;1.10;;;;;;;19.26;43.88;96685.19;4850017;29;20290;-83
2022/04/05 05:16:06;;;;;;;1.23;1.13;;;;;;;17.97;43.88;96465.53;4870714;29;20817;-87
2022/04/05 05:18:33;;;;;;;1.10;1.10;;;;;;;18.86;43.76;96607.78;4846446;29;20608;-86
2022/04/05 05:20:59;;;;;;;3.03;1.47;;;;;;;18.30;43.54;96527.44;4857743;29;20767;-87
2022/04/05 05:23:26;;;;;;;1.60;1.50;;;;;;;19.06;43.60;96676.19;4884707;29;20216;-86
2022/04/05 05:25:53;;;;;;;1.70;1.50;;;;;;;18.99;43.58;96642.88;4852026;29;20230;-86
2022/04/05 05:28:19;;;;;;;1.60;1.50;;;;;;;19.04;43.50;96649.81;4866158;29;20251;-86
2022/04/05 05:30:46;;;;;;;1.73;1.63;;;;;;;19.14;43.26;96679.81;4870237;29;20274;-88
2022/04/05 05:33:13;;;;;;;1.90;1.80;;;;;;;19.26;42.78;96697.94;4870234;29;20689;-87
2022/04/05 05:35:39;;;;;;;2.50;2.30;;;;;;;18.59;42.36;96590.09;4869034;29;20305;-87
2022/04/05 05:38:06;;;;;;;3.67;2.30;;;;;;;18.85;42.51;96627.28;4877252;29;20282;-87
2022/04/05 05:40:33;;;;;;;2.53;2.33;;;;;;;17.78;42.50;96451.47;4862208;29;20245;-87
2022/04/05 05:43:04;;;;;;;4.57;2.53;;;;;;;18.31;42.63;96552.03;4885312;29;20653;-90
2022/04/05 05:45:32;;;;;;;2.47;2.20;;;;;;;18.08;42.53;96504.78;4877784;29;20278;-85
2022/04/05 05:47:59;;;;;;;3.43;2.17;;;;;;;18.89;42.78;96674.03;4861798;29;20210;-87
2022/04/05 05:50:26;;;;;;;2.13;2.00;;;;;;;18.69;43.09;96637.00;4864238;29;20282;-85
2022/04/05 05:52:53;;;;;;;2.20;2.00;;;;;;;19.23;42.88;96740.28;4866390;29;20674;-86
2022/04/05 05:55:20;;;;;;;2.87;1.90;;;;;;;19.22;43.28;96718.19;4867373;29;21004;-86
2022/04/05 05:57:47;;;;;;;2.00;1.80;;;;;;;19.01;42.58;96674.34;4879459;29;20281;-86
2022/04/05 06:00:17;;;;;;;2.40;2.00;;;;;;;19.04;43.16;96684.63;4881544;29;20218;-87
2022/04/05 06:02:45;;;;;;;1.83;1.73;;;;;;;19.06;43.15;96681.28;4881281;29;20689;-87
2022/04/05 06:05:12;;;;;;;1.80;1.70;;;;;;;19.02;43.32;96681.16;4879908;29;20202;-87
2022/04/05 06:07:41;;;;;;;2.63;1.97;;;;;;;19.42;43.38;96768.00;4876568;29;20307;-88
2022/04/05 06:10:09;;;;;;;2.10;1.90;;;;;;;18.43;43.33;96576.94;4858189;29;20237;-85
2022/04/05 06:12:41;;;;;;;1.87;1.77;;;;;;;18.83;43.32;96656.06;4871612;29;20260;-87
2022/04/05 06:15:08;;;;;;;2.30;1.90;;;;;;;18.81;42.91;96676.38;4857125;29;20203;-87
2022/04/05 06:17:42;;;;;;;2.67;2.13;;;;;;;18.92;43.14;96677.50;4857916;29;20498;-86
2022/04/05 06:20:10;;;;;;;1.77;1.67;;;;;;;19.06;43.29;96721.16;4873991;29;20309;-87
2022/04/05 06:23:00;;;;;;;2.23;2.00;;;;;;;19.42;43.29;96773.09;4853384;29;20341;-87
2022/04/05 06:25:32;;;;;;;4.63;1.80;;;;;;;19.41;43.36;96777.34;4867585;29;20309;-86
2022/04/05 06:28:03;;;;;;;1.83;1.73;;;;;;;19.04;43.44;96720.28;4858286;29;20649;-87
2022/04/05 06:30:32;;;;;;;1.70;1.60;;;;;;;18.72;43.55;96667.63;4858403;29;20268;-89
2022/04/05 06:33:28;;;;;;;2.00;1.80;;;;;;;19.42;43.37;96780.75;4855845;29;20698;-86
2022/04/05 06:35:57;;;;;;;2.20;2.00;;;;;;;19.05;43.52;96719.44;4869054;29;20233;-85
2022/04/05 06:38:24;;;;;;;1.97;1.80;;;;;;;19.05;43.37;96716.88;4859540;29;20258;-85
2022/04/05 06:40:59;;;;;;;1.97;1.73;;;;;;;18.86;43.46;96681.59;4866764;29;20230;-85
2022/04/05 06:43:26;;;;;;;2.07;1.70;;;;;;;18.92;43.53;96686.84;4858685;29;20202;-85
2022/04/05 06:45:52;;;;;;;4.13;1.60;;;;;;;18.86;43.62;96676.50;4862858;29;20214;-85
2022/04/05 06:48:19;;;;;;;2.43;1.90;;;;;;;19.10;43.42;96718.72;4845879;29;20214;-85
2022/04/05 06:50:47;;;;;;;2.20;1.70;;;;;;;18.48;43.50;96608.47;4858145;29;20788;-85
2022/04/05 06:53:13;;;;;;;2.27;1.60;;;;;;;19.39;43.61;96767.94;4858950;29;20315;-85
2022/04/05 06:55:40;;;;;;;1.80;1.70;;;;;;;19.19;43.59;96744.44;4873378;29;20653;-85
2022/04/05 06:58:08;;;;;;;1.63;1.50;;;;;;;18.77;43.79;96669.47;4859377;29;20270;-85
2022/04/05 07:00:35;;;;;;;1.70;1.60;;;;;;;19.33;43.55;96773.72;4858194;29;20701;-85
2022/04/05 07:03:02;;;;;;;1.63;1.53;;;;;;;19.03;43.89;96721.94;4873484;29;20218;-84
2022/04/05 07:05:29;;;;;;;1.73;1.63;;;;;;;19.05;43.78;96725.41;4857681;29;20206;-85
2022/04/05 07:07:56;;;;;;;1.83;1.70;;;;;;;18.62;43.52;96648.69;4858562;29;20321;-85
2022/04/05 07:10:23;;;;;;;2.63;1.60;;;;;;;19.00;43.71;96723.53;4858430;29;20237;-87
2022/04/05 07:12:50;;;;;;;1.70;1.60;;;;;;;18.44;43.58;96619.38;4874668;29;20313;-86
2022/04/05 07:15:17;;;;;;;1.53;1.43;;;;;;;18.81;43.56;96690.78;4868719;29;20654;-86
2022/04/05 07:17:44;;;;;;;1.77;1.67;;;;;;;19.26;43.20;96761.63;4870939;29;20245;-87
2022/04/05 07:20:30;;;;;;;2.13;1.70;;;;;;;19.20;43.61;96753.81;4868377;29;20216;-86
2022/04/05 07:22:57;;;;;;;1.50;1.40;;;;;;;18.82;42.90;96689.97;4847037;29;20523;-86
2022/04/05 07:25:24;;;;;;;1.37;1.27;;;;;;;19.02;43.70;96724.44;4858567;29;20236;-86
2022/04/05 07:27:51;;;;;;;1.63;1.53;;;;;;;18.88;43.52;96716.44;4858407;29;20669;-86
2022/04/05 07:30:18;;;;;;;1.80;1.50;;;;;;;19.06;43.74;96729.66;4857777;29;20723;-86
2022/04/05 07:32:45;;;;;;;1.50;1.40;;;;;;;18.05;43.63;96563.16;4872799;29;20237;-84
2022/04/05 07:35:13;;;;;;;1.67;1.50;;;;;;;18.82;43.61;96697.59;4866069;29;20708;-88
2022/04/05 07:37:40;;;;;;;1.47;1.37;;;;;;;18.49;43.61;96645.78;4894282;29;20203;-91
2022/04/05 07:40:10;;;;;;;1.50;1.40;;;;;;;19.16;43.65;96764.72;4895096;29;20218;-90
2022/04/05 07:42:38;;;;;;;1.73;1.43;;;;;;;15.68;43.57;96177.22;4869796;29;20249;-91
2022/04/05 07:45:06;;;;;;;1.50;1.40;;;;;;;13.64;43.61;95836.88;4886234;29;20202;-92
2022/04/05 07:47:32;;;;;;;1.63;1.53;;;;;;;17.60;43.34;96501.78;4889698;29;20182;-94
2022/04/05 07:49:59;;;;;;;1.70;1.60;;;;;;;14.46;43.67;96018.13;4876137;29;20226;-91
2022/04/05 07:52:26;;;;;;;1.27;1.20;;;;;;;15.85;44.25;96229.25;4888109;29;20197;-92
2022/04/05 07:54:54;;;;;;;1.20;1.20;;;;;;;14.51;43.68;95984.59;4888694;29;20182;-92
2022/04/05 07:57:21;;;;;;;1.47;1.37;;;;;;;18.05;43.50;96619.97;4868142;29;20202;-93
2022/04/05 07:59:48;;;;;;;1.63;1.40;;;;;;;16.64;44.06;96360.97;4886447;29;20210;-91
2022/04/05 08:02:14;;;;;;;3.43;1.50;;;;;;;16.62;43.78;96334.69;4886112;29;20246;-92
2022/04/05 08:04:57;;;;;;;2.13;1.37;;;;;;;16.62;43.87;96300.03;4904746;29;20202;-92
2022/04/05 08:07:23;;;;;;;1.70;1.60;;;;;;;17.18;43.80;96401.50;4885846;29;20193;-92
2022/04/05 08:09:50;;;;;;;2.07;1.57;;;;;;;14.73;43.76;96002.94;4903280;29;20732;-91
2022/04/05 08:12:17;;;;;;;3.37;1.47;;;;;;;18.74;44.09;96694.00;4888811;29;20228;-92
2022/04/05 08:14:43;;;;;;;1.40;1.30;;;;;;;15.73;43.31;96146.97;4904096;29;20182;-92
2022/04/05 08:17:10;;;;;;;1.60;1.50;;;;;;;14.49;43.33;95935.69;4885360;29;20202;-89
2022/04/05 08:19:37;;;;;;;2.60;1.50;;;;;;;17.52;43.70;96487.09;4873709;29;20225;-92
2022/04/05 08:22:04;;;;;;;1.40;1.30;;;;;;;14.88;43.83;96049.81;4899052;29;20233;-91
2022/04/05 08:24:30;;;;;;;1.50;1.40;;;;;;;16.00;43.79;96218.72;4917391;29;20195;-91
2022/04/05 08:26:57;;;;;;;1.57;1.47;;;;;;;17.60;44.11;96546.63;4899430;29;20226;-92
2022/04/05 08:29:24;;;;;;;1.20;1.20;;;;;;;18.86;43.53;96684.16;4902457;29;20187;-91
2022/04/05 08:31:50;;;;;;;1.50;1.40;;;;;;;15.80;43.38;96196.97;4899926;29;20223;-92
2022/04/05 08:34:18;;;;;;;3.30;1.70;;;;;;;16.43;43.51;96297.72;4897573;29;20297;-91
2022/04/05 08:36:45;;;;;;;1.40;1.30;;;;;;;15.96;43.39;96189.88;4916232;29;20199;-91
2022/04/05 08:39:11;;;;;;;1.40;1.30;;;;;;;15.19;43.21;96098.00;4887848;29;20222;-92
2022/04/05 08:41:38;;;;;;;1.50;1.40;;;;;;;18.74;43.57;96664.28;4903453;29;20250;-93
2022/04/05 08:44:05;;;;;;;1.60;1.50;;;;;;;16.80;43.44;96335.22;4887816;29;20190;-92
2022/04/05 08:46:35;;;;;;;1.40;1.30;;;;;;;16.06;43.64;96234.09;4872135;29;20340;-93
2022/04/05 08:49:02;;;;;;;1.50;1.40;;;;;;;14.20;43.35;95926.28;4887529;29;20230;-92
2022/04/05 08:51:30;;;;;;;1.33;1.23;;;;;;;16.04;43.41;96195.19;4901581;29;20202;-92
2022/04/05 08:53:57;;;;;;;1.43;1.30;;;;;;;16.84;43.32;96332.81;4901576;29;20186;-92
2022/04/05 08:56:27;;;;;;;1.40;1.30;;;;;;;18.11;43.26;96566.75;4904283;29;20202;-90
2022/04/05 08:58:53;;;;;;;1.40;1.30;;;;;;;17.01;43.37;96382.38;4905466;29;20281;-93
2022/04/05 09:01:21;;;;;;;1.50;1.40;;;;;;;17.29;43.41;96417.84;4888288;29;20243;-91
2022/04/05 09:03:49;;;;;;;1.60;1.50;;;;;;;16.70;43.48;96335.78;4888640;29;20183;-92
2022/04/05 09:06:28;;;;;;;1.53;1.43;;;;;;;19.69;43.38;96823.06;4888876;29;20183;-91
2022/04/05 09:09:16;;;;;;;1.20;1.20;;;;;;;17.96;43.65;96585.78;4919897;29;20270;-92
2022/04/05 09:11:47;;;;;;;1.53;1.43;;;;;;;16.61;43.42;96333.81;4888783;29;20214;-92
2022/04/05 09:14:23;;;;;;;1.40;1.30;;;;;;;17.78;44.00;96581.06;4891355;29;20205;-92
2022/04/05 09:17:06;;;;;;;1.50;1.40;;;;;;;15.39;42.60;96109.66;4888957;29;20226;-92
2022/04/05 09:19:37;;;;;;;1.47;1.37;;;;;;;17.75;43.47;96494.56;4904151;29;20218;-91
2022/04/05 09:22:04;;;;;;;1.40;1.30;;;;;;;15.62;44.11;96149.19;4887422;29;20207;-91
2022/04/05 09:24:35;;;;;;;3.50;1.13;;;;;;;15.42;43.36;96093.72;4905934;29;20188;-91
2022/04/05 09:27:02;;;;;;;1.40;1.30;;;;;;;15.34;43.22;96144.03;4901275;29;20207;-92
2022/04/05 09:29:47;;;;;;;1.40;1.30;;;;;;;18.39;43.37;96581.09;4923617;29;20198;-93
2022/04/05 09:32:37;;;;;;;1.20;1.10;;;;;;;16.24;42.32;96230.44;4999447;23;20301;-92
2022/04/05 09:35:05;;;;;;;1.17;1.17;;;;;;;13.57;43.35;95759.25;4916372;29;20173;-93
2022/04/05 09:37:36;;;;;;;1.40;1.30;;;;;;;17.02;43.29;96406.91;4910017;29;20202;-93
2022/04/05 09:40:32;;;;;;;1.17;1.17;;;;;;;19.73;43.39;96809.59;5011349;23;20233;-90
2022/04/05 09:43:21;;;;;;;1.30;1.20;;;;;;;12.73;42.97;95631.22;4917997;29;20179;-94
2022/04/05 09:54:27;;;;;;;1.50;1.40;;;;;;;19.77;43.30;96815.63;3965261;23;20737;-92
2022/04/05 10:00:16;;;;;;;1.50;1.40;;;;;;;15.49;42.67;96095.59;4919669;29;20221;-93
2022/04/05 10:08:00;;;;;;;1.50;1.40;;;;;;;16.26;43.11;96264.28;5003324;23;20221;-93
2022/04/05 10:10:28;;;;;;;1.40;1.30;;;;;;;14.29;43.21;95934.19;4907612;29;20193;-94
2022/04/05 10:15:30;;;;;;;1.50;1.40;;;;;;;15.64;43.27;96103.66;4933939;23;20239;-92
2022/04/05 10:17:57;;;;;;;1.50;1.40;;;;;;;17.43;42.43;96448.72;4903072;29;20198;-92
2022/04/05 10:20:25;;;;;;;1.50;1.40;;;;;;;16.84;43.10;96321.81;4897580;29;20244;-93
2022/04/05 10:22:54;;;;;;;1.80;1.70;;;;;;;18.64;43.63;96671.66;4885224;29;20197;-92
2022/04/05 10:25:24;;;;;;;1.40;1.30;;;;;;;16.56;43.55;96324.34;4869152;29;20195;-93
2022/04/05 10:27:50;;;;;;;1.60;1.50;;;;;;;18.50;43.13;96614.47;4867260;29;20188;-92
2022/04/05 10:30:20;;;;;;;2.23;1.53;;;;;;;17.27;43.15;96383.09;4894408;29;20218;-92
2022/04/05 10:33:26;;;;;;;1.53;1.40;;;;;;;19.82;43.22;96821.69;4868969;29;20203;-91
2022/04/05 10:35:54;;;;;;;1.97;1.40;;;;;;;18.73;43.05;96647.31;4901215;29;20321;-93
2022/04/05 10:38:21;;;;;;;1.60;1.50;;;;;;;17.14;43.00;96394.59;4879355;29;20199;-93
2022/04/05 10:41:20;;;;;;;1.40;1.30;;;;;;;15.95;43.30;96202.50;4876036;29;20218;-90
2022/04/05 10:43:49;;;;;;;1.50;1.40;;;;;;;14.59;43.04;95935.13;4867068;29;20173;-89
2022/04/05 10:46:39;;;;;;;2.33;1.63;;;;;;;16.30;42.93;96200.22;4898457;29;20210;-93
2022/04/05 10:49:48;;;;;;;1.50;1.40;;;;;;;16.36;43.37;96256.16;4873202;29;20179;-92
2022/04/05 10:52:18;;;;;;;4.40;1.77;;;;;;;16.37;42.99;96206.28;4892916;29;20216;-93
2022/04/05 10:54:47;;;;;;;2.60;1.80;;;;;;;15.42;42.75;96053.22;4865714;29;20183;-92
2022/04/05 10:57:34;;;;;;;1.80;1.43;;;;;;;19.86;43.16;96810.75;4888717;29;20235;-94
2022/04/05 11:02:41;;;;;;;4.63;1.77;;;;;;;15.88;43.13;96191.34;4001713;27;20209;-93
2022/04/05 11:05:14;;;;;;;4.00;1.70;;;;;;;19.84;43.21;96813.25;4916491;29;20186;-93
2022/04/05 11:07:53;;;;;;;3.03;2.00;;;;;;;19.84;43.20;96802.22;4923824;29;20201;-94
2022/04/05 11:10:21;;;;;;;4.47;2.03;;;;;;;17.22;43.84;96397.34;4929128;29;20182;-94
2022/04/05 11:12:48;;;;;;;4.93;2.13;;;;;;;15.83;43.25;96146.44;4924909;28;20233;-92
2022/04/05 11:15:15;;;;;;;3.57;2.27;;;;;;;16.36;43.25;96214.72;4924961;29;20189;-94
2022/04/05 11:17:42;;;;;;;4.37;2.20;;;;;;;15.11;43.06;96038.75;4933677;29;20177;-93
2022/04/05 11:20:10;;;;;;;2.70;1.83;;;;;;;18.53;43.18;96630.66;4928994;23;20286;-92
2022/04/05 11:22:38;;;;;;;4.33;1.97;;;;;;;16.46;42.99;96226.03;4950461;28;20208;-94
2022/04/05 11:25:05;;;;;;;2.60;1.87;;;;;;;19.86;43.19;96803.09;4928844;29;20186;-91
2022/04/05 11:27:38;;;;;;;3.30;2.00;;;;;;;13.72;42.91;95777.41;4937412;28;20174;-93
2022/04/05 11:30:25;;;;;;;4.47;2.20;;;;;;;19.87;43.23;96808.22;4941176;28;20191;-93
2022/04/05 11:33:17;;;;;;;3.80;2.07;;;;;;;19.87;43.26;96803.13;4994748;23;20221;-93
2022/04/05 11:35:57;;;;;;;3.57;2.10;;;;;;;19.87;43.02;96792.94;4917282;29;20198;-93
2022/04/05 11:38:27;;;;;;;5.20;1.93;;;;;;;19.89;43.12;96792.97;4911485;29;20174;-92
2022/04/05 11:40:55;;;;;;;2.57;1.90;;;;;;;15.00;43.80;95973.44;4913979;29;20218;-92
2022/04/05 11:43:27;;;;;;;3.63;1.93;;;;;;;16.25;42.53;96244.84;4888541;29;20174;-94
2022/04/05 11:46:04;;;;;;;3.73;1.90;;;;;;;15.24;43.01;96002.88;4899167;29;20190;-90
2022/04/05 11:48:31;;;;;;;3.60;2.03;;;;;;;16.40;43.23;96259.63;4913146;29;20178;-94
2022/04/05 11:50:59;;;;;;;2.93;1.93;;;;;;;15.83;43.02;96106.78;4885612;29;20230;-93
2022/04/05 11:53:27;;;;;;;2.87;1.73;;;;;;;17.67;42.75;96439.28;4873564;29;20224;-93
2022/04/05 11:56:03;;;;;;;4.17;2.20;;;;;;;19.89;43.25;96785.31;4885599;29;20198;-94
2022/04/05 11:58:39;;;;;;;2.23;1.70;;;;;;;18.83;43.19;96617.88;4919189;29;20209;-92
2022/04/05 12:01:07;;;;;;;3.27;1.90;;;;;;;16.05;42.34;96195.22;4904006;29;20224;-94
2022/04/05 12:03:48;;;;;;;2.77;1.93;;;;;;;18.01;42.97;96480.03;4889946;29;20186;-94
2022/04/05 12:06:23;;;;;;;4.50;2.07;;;;;;;17.24;43.22;96367.78;4878977;29;20193;-95
2022/04/05 12:08:53;;;;;;;4.83;2.20;;;;;;;15.41;43.12;96013.50;4868659;29;20195;-93
2022/04/05 12:11:21;;;;;;;5.47;2.23;;;;;;;18.09;43.16;96527.69;4887184;29;20214;-93
2022/04/05 12:13:59;;;;;;;3.90;2.27;;;;;;;18.10;43.00;96520.94;4887688;29;20182;-93
2022/04/05 12:16:27;;;;;;;3.20;1.87;;;;;;;18.61;43.59;96567.25;4887490;29;20182;-93
2022/04/05 12:18:54;;;;;;;3.33;2.17;;;;;;;17.22;43.11;96324.59;4887191;29;20211;-92
2022/04/05 12:21:22;;;;;;;4.03;2.10;;;;;;;16.57;43.72;96238.19;4890045;29;20841;-92
2022/04/05 12:23:49;;;;;;;5.10;2.37;;;;;;;15.25;43.01;96001.22;4898330;29;20174;-94
2022/04/05 12:26:19;;;;;;;3.07;2.30;;;;;;;19.89;43.13;96785.31;4887717;29;20195;-94
2022/04/05 12:28:50;;;;;;;4.20;2.20;;;;;;;18.29;42.86;96529.94;4882110;29;20203;-92
2022/04/05 12:31:19;;;;;;;3.07;2.10;;;;;;;19.00;43.08;96649.69;4956955;23;20212;-91
2022/04/05 12:34:13;;;;;;;4.07;2.13;;;;;;;19.89;42.94;96783.63;4914297;29;20242;-91
2022/04/05 12:36:41;;;;;;;4.30;2.57;;;;;;;19.32;42.75;96687.94;4913578;29;20422;-92
2022/04/05 12:39:20;;;;;;;6.07;2.90;;;;;;;18.84;42.95;96607.75;4905092;29;20205;-91
2022/04/05 12:41:50;;;;;;;4.60;2.60;;;;;;;19.44;43.13;96693.31;4891821;29;20203;-91
2022/04/05 12:44:19;;;;;;;6.47;2.90;;;;;;;19.03;42.91;96634.50;4901025;29;20255;-92
2022/04/05 12:46:52;;;;;;;5.67;2.43;;;;;;;18.92;42.73;96616.41;4872608;29;20184;-92
2022/04/05 12:49:33;;;;;;;5.47;2.70;;;;;;;19.04;42.98;96643.88;4899853;29;20179;-92
2022/04/05 12:52:25;;;;;;;2.53;1.97;;;;;;;18.56;43.25;96559.50;4901259;29;20211;-92
2022/04/05 12:55:12;;;;;;;7.00;2.40;;;;;;;18.65;43.01;96572.44;4886013;29;20207;-92
2022/04/05 12:57:46;;;;;;;4.43;2.23;;;;;;;18.36;43.02;96511.44;4889513;29;20206;-91
2022/04/05 13:00:18;;;;;;;4.20;2.50;;;;;;;19.31;43.00;96662.41;4885214;29;20202;-92
2022/04/05 13:03:10;;;;;;;3.53;2.20;;;;;;;19.90;43.11;96762.41;4901438;29;20198;-92
2022/04/05 13:08:36;;;;;;;4.07;2.50;;;;;;;18.62;43.19;96553.72;4899624;29;20203;-91
2022/04/05 13:11:03;;;;;;;2.47;1.93;;;;;;;18.61;43.10;96541.78;4899900;29;20191;-90
2022/04/05 13:13:32;;;;;;;3.63;2.30;;;;;;;19.89;43.12;96758.13;4896272;29;20190;-91
2022/04/05 13:15:59;;;;;;;4.07;2.43;;;;;;;19.91;42.70;96753.94;4899478;29;20256;-91
2022/04/05 13:18:39;;;;;;;3.27;2.27;;;;;;;19.92;42.99;96752.25;4900847;29;20464;-91
2022/04/05 13:21:12;;;;;;;2.50;2.07;;;;;;;18.64;43.09;96534.25;4899050;29;20215;-91
2022/04/05 13:23:39;;;;;;;5.60;2.70;;;;;;;19.01;43.05;96596.25;4900793;29;20183;-91
2022/04/05 13:26:19;;;;;;;4.30;2.50;;;;;;;18.94;42.87;96602.03;4915066;29;20203;-91
2022/04/05 13:28:46;;;;;;;3.97;2.40;;;;;;;18.80;42.90;96560.09;4884288;29;20175;-92
2022/04/05 13:31:17;;;;;;;3.10;2.20;;;;;;;19.02;42.89;96592.91;4897903;29;20184;-91
2022/04/05 13:33:44;;;;;;;3.17;2.17;;;;;;;18.72;43.11;96542.94;4880586;29;20192;-91